My webcam more information My webcam


Thunder radar more information blitzortung!


Rain radar more information rain snow radar


Visit our other weather sites:

Template documentation
and downloads

And another site



Weather Underground History page Text

Daily Summary for March 18, 2019 Units:  Metric    English   Both
« Previous Day
Next Day »
Daily Weekly Monthly Yearly Custom
  Current: High: Low: Average:
Temperature: -12.4 °C -17.8 °C -15.4 °C -13.7 °C
Dew Point: -15.8 °C -17.8 °C -16.7 °C -15.6 °C
Humidity: 66 % Humidity % 56 % 80 %
Wind Speed: 6.3 km/h 0 km/h 0 km/h 5 km/h
Wind Gust: 17.9 km/h 0 km/h - -
Wind:West - - West
Pressure: 34584.6 hPa 0 hPa 34323.9 hPa -
Precipitation: 0 mm      
Historical Graphs
 
 
Tabular Data for March 18, 2019
Time Temperature Dew Point Pressure Wind Wind Speed Wind Gust Humidity Rainfall Rate (Hourly)
-17.8 °C -17.8 °C 0 hPa Calm     Humidity % 0 mm
00:04 -14.6 °C -15.8 °C 34323.9 hPa WSW 7.6 km/h 15.6 km/h 86 % 0 mm
00:09 -14.6 °C -15.8 °C 34323.9 hPa WNW 5.5 km/h 9 km/h 86 % 0 mm
00:14 -14.6 °C -15.8 °C 34330.7 hPa West 6.4 km/h 17.9 km/h 86 % 0 mm
00:19 -14.6 °C -15.8 °C 34330.7 hPa WSW 7.7 km/h 15 km/h 86 % 0 mm
00:24 -14.6 °C -15.8 °C 34330.7 hPa WNW 5 km/h 9 km/h 86 % 0 mm
00:29 -14.6 °C -15.8 °C 34334 hPa WNW 6.8 km/h 9 km/h 86 % 0 mm
00:34 -14.6 °C -15.7 °C 34337.4 hPa West 4.2 km/h 9 km/h 87 % 0 mm
00:39 -14.6 °C -15.7 °C 34337.4 hPa WSW 6.3 km/h 10.3 km/h 87 % 0 mm
00:44 -14.6 °C -15.7 °C 34337.4 hPa West 4.2 km/h 6 km/h 87 % 0 mm
00:49 -14.6 °C -15.7 °C 34340.8 hPa WNW 5 km/h 17.9 km/h 87 % 0 mm
00:54 -14.5 °C -15.5 °C 34340.8 hPa West 6 km/h 23.8 km/h 88 % 0 mm
00:59 -14.4 °C -15.4 °C 34344.2 hPa West 3.9 km/h 10.3 km/h 88 % 0 mm
01:04 -14.4 °C -15.5 °C 34347.6 hPa WNW 3.9 km/h 9 km/h 87 % 0 mm
01:09 -14.4 °C -15.4 °C 34351 hPa WNW 4.2 km/h 9 km/h 88 % 0 mm
01:14 -14.3 °C -15.4 °C 34354.4 hPa West 6.3 km/h 20.9 km/h 87 % 0 mm
01:19 -14.3 °C -15.4 °C 34357.7 hPa West 9 km/h 26.9 km/h 87 % 0 mm
01:24 -14.3 °C -15.4 °C 34361.1 hPa WNW 4.7 km/h 29.8 km/h 87 % 0 mm
01:29 -14.3 °C -15.4 °C 34364.5 hPa WNW 4.7 km/h 9 km/h 87 % 0 mm
01:34 -14.3 °C -15.4 °C 34367.9 hPa West 2.6 km/h 11.9 km/h 87 % 0 mm
01:39 -14.3 °C -15.4 °C 34371.3 hPa West 1.6 km/h 3.1 km/h 87 % 0 mm
01:44 -14.4 °C -15.5 °C 34371.3 hPa West 2.3 km/h 9 km/h 87 % 0 mm
01:49 -14.5 °C -15.6 °C 34374.7 hPa West 3.7 km/h 9 km/h 87 % 0 mm
01:54 -14.6 °C -15.7 °C 34374.7 hPa West 2.3 km/h 7.7 km/h 87 % 0 mm
01:59 -14.7 °C -15.8 °C 34378.1 hPa West 3.4 km/h 6 km/h 87 % 0 mm
02:04 -14.8 °C -15.9 °C 34378.1 hPa West 3.7 km/h 10.3 km/h 88 % 0 mm
02:09 -14.9 °C -15.9 °C 34381.4 hPa West 4.7 km/h 9 km/h 88 % 0 mm
02:14 -14.9 °C -15.9 °C 34381.4 hPa WSW 3.9 km/h 9 km/h 89 % 0 mm
02:19 -14.9 °C -15.9 °C 34384.8 hPa West 4.3 km/h 15 km/h 89 % 0 mm
02:24 -14.9 °C -15.8 °C 34384.8 hPa West 2.9 km/h 9 km/h 90 % 0 mm
02:29 -14.9 °C -15.8 °C 34388.2 hPa West 4.2 km/h 9 km/h 90 % 0 mm
02:34 -14.9 °C -15.8 °C 34391.6 hPa West 4.2 km/h 6 km/h 90 % 0 mm
02:40 -14.9 °C -15.8 °C 34391.6 hPa West 5.1 km/h 9 km/h 90 % 0 mm
02:44 -15 °C -15.8 °C 34395 hPa West 3.1 km/h 15 km/h 90 % 0 mm
02:49 -15.1 °C -15.9 °C 34395 hPa West 5 km/h 11.9 km/h 90 % 0 mm
02:54 -15.1 °C -15.9 °C 34395 hPa West 1.8 km/h 6 km/h 90 % 0 mm
02:59 -15.2 °C -15.9 °C 34401.8 hPa West 5.5 km/h 9 km/h 91 % 0 mm
03:04 -15.2 °C -15.9 °C 34401.8 hPa WSW 3.9 km/h 6 km/h 91 % 0 mm
03:09 -15.2 °C -15.9 °C 34401.8 hPa West 2.6 km/h 9 km/h 91 % 0 mm
03:14 -15.1 °C -15.9 °C 34405.1 hPa West 5.6 km/h 11.9 km/h 91 % 0 mm
03:19 -15.1 °C -15.8 °C 34408.5 hPa West 3.4 km/h 11.9 km/h 91 % 0 mm
03:24 -15.1 °C -15.8 °C 34408.5 hPa West 6.9 km/h 11.9 km/h 91 % 0 mm
03:29 -15.1 °C -15.8 °C 34408.5 hPa West 9.3 km/h 15 km/h 91 % 0 mm
03:34 -15 °C -15.7 °C 34411.9 hPa WSW 4.2 km/h 12.9 km/h 91 % 0 mm
03:39 -15.1 °C -15.9 °C 34408.5 hPa WNW 2.1 km/h 5.1 km/h 90 % 0 mm
03:44 -15.1 °C -15.9 °C 34408.5 hPa West 4.7 km/h 9 km/h 90 % 0 mm
03:49 -15.1 °C -15.9 °C 34408.5 hPa West 3.9 km/h 9 km/h 90 % 0 mm
03:54 -15.1 °C -15.9 °C 34411.9 hPa West 4.7 km/h 9 km/h 90 % 0 mm
03:59 -15.1 °C -15.9 °C 34411.9 hPa West 2.1 km/h 9 km/h 90 % 0 mm
04:04 -15.1 °C -15.9 °C 34415.3 hPa WSW 2.1 km/h 6 km/h 90 % 0 mm
04:09 -15.1 °C -15.9 °C 34415.3 hPa WSW 4.2 km/h 6 km/h 90 % 0 mm
04:14 -15.1 °C -15.9 °C 34415.3 hPa West 0.3 km/h 3.1 km/h 90 % 0 mm
04:19 -15.1 °C -15.9 °C 34418.7 hPa West 1 km/h 6 km/h 90 % 0 mm
04:24 -15.1 °C -15.8 °C 34422.1 hPa West 1.6 km/h 9 km/h 91 % 0 mm
04:29 -14.9 °C -15.7 °C 34422.1 hPa WNW 2.6 km/h 9 km/h 91 % 0 mm
04:34 -14.8 °C -15.6 °C 34422.1 hPa WNW 5 km/h 9 km/h 91 % 0 mm
04:39 -14.7 °C -15.6 °C 34428.8 hPa NW 4.3 km/h 9 km/h 90 % 0 mm
04:44 -14.7 °C -15.5 °C 34428.8 hPa West 5.5 km/h 17.9 km/h 90 % 0 mm
04:49 -14.7 °C -15.6 °C 34432.2 hPa West 2.1 km/h 9 km/h 89 % 0 mm
04:54 -14.6 °C -15.6 °C 34435.6 hPa WNW 5.5 km/h 15 km/h 89 % 0 mm
04:59 -14.6 °C -15.7 °C 34435.6 hPa WNW 6 km/h 11.9 km/h 88 % 0 mm
05:04 -14.6 °C -15.6 °C 34435.6 hPa WSW 2.1 km/h 11.9 km/h 88 % 0 mm
05:09 -14.6 °C -15.6 °C 34439 hPa NW 3.7 km/h 6 km/h 88 % 0 mm
05:14 -14.6 °C -15.6 °C 34442.4 hPa WNW 4.2 km/h 9 km/h 88 % 0 mm
05:19 -14.6 °C -15.6 °C 34442.4 hPa West 5.5 km/h 9 km/h 88 % 0 mm
05:24 -14.6 °C -15.7 °C 34445.8 hPa West 4.2 km/h 9 km/h 88 % 0 mm
05:29 -14.7 °C -15.8 °C 34452.6 hPa West 4.2 km/h 9 km/h 87 % 0 mm
05:34 -14.8 °C -15.8 °C 34452.6 hPa West 1.8 km/h 6 km/h 88 % 0 mm
05:39 -14.9 °C -15.9 °C 34459.3 hPa Calm   3.1 km/h 88 % 0 mm
05:44 -15.1 °C -16.1 °C 34455.9 hPa West 0.3 km/h 2.6 km/h 88 % 0 mm
05:49 -15.2 °C -16.2 °C 34455.9 hPa Calm     88 % 0 mm
05:54 -15.2 °C -16.2 °C 34455.9 hPa West 1 km/h 3.1 km/h 89 % 0 mm
05:59 -15.3 °C -16.3 °C 34459.3 hPa Calm     89 % 0 mm
06:04 -15.4 °C -16.3 °C 34462.7 hPa Calm   3.1 km/h 89 % 0 mm
06:09 -15.4 °C -16.2 °C 34462.7 hPa West 3.4 km/h 6 km/h 90 % 0 mm
06:14 -15.3 °C -16.1 °C 34466.1 hPa Calm   9 km/h 91 % 0 mm
06:19 -15.3 °C -16.2 °C 34469.5 hPa WSW 1.8 km/h 6 km/h 90 % 0 mm
06:24 -15.2 °C -15.9 °C 34469.5 hPa West 1.6 km/h 6 km/h 91 % 0 mm
06:29 -15.1 °C -15.9 °C 34469.5 hPa West 2.1 km/h 6 km/h 91 % 0 mm
06:34 -15 °C -15.7 °C 34469.5 hPa West 2.9 km/h 9 km/h 91 % 0 mm
06:39 -14.8 °C -15.7 °C 34476.3 hPa West 5.1 km/h 11.9 km/h 90 % 0 mm
06:44 -14.8 °C -15.7 °C 34476.3 hPa WNW 6 km/h 20.9 km/h 89 % 0 mm
06:49 -14.7 °C -15.6 °C 34476.3 hPa West 3.7 km/h 9 km/h 89 % 0 mm
06:54 -14.7 °C -15.7 °C 34479.6 hPa West 2.1 km/h 9 km/h 88 % 0 mm
06:59 -14.6 °C -15.7 °C 34483 hPa West 3.4 km/h 11.9 km/h 88 % 0 mm
07:04 -14.6 °C -15.6 °C 34486.4 hPa WNW 5.6 km/h 11.9 km/h 88 % 0 mm
07:09 -14.6 °C -15.6 °C 34489.8 hPa West 4.7 km/h 6 km/h 88 % 0 mm
07:14 -14.6 °C -15.7 °C 34489.8 hPa West 3.9 km/h 9 km/h 87 % 0 mm
07:19 -14.6 °C -15.7 °C 34493.2 hPa West 3.4 km/h 6 km/h 87 % 0 mm
07:24 -14.6 °C -15.7 °C 34493.2 hPa West 3.9 km/h 6 km/h 87 % 0 mm
07:29 -14.6 °C -15.7 °C 34493.2 hPa West 3.1 km/h 9 km/h 87 % 0 mm
07:34 -14.6 °C -15.7 °C 34496.6 hPa West 3.4 km/h 9 km/h 87 % 0 mm
07:39 -14.6 °C -15.6 °C 34496.6 hPa West 3.1 km/h 9 km/h 88 % 0 mm
07:44 -14.5 °C -15.5 °C 34496.6 hPa West 3.1 km/h 9 km/h 88 % 0 mm
07:49 -14.5 °C -15.6 °C 34500 hPa West 2.3 km/h 9 km/h 87 % 0 mm
07:54 -14.5 °C -15.6 °C 34500 hPa WNW 6.3 km/h 11.9 km/h 87 % 0 mm
07:59 -14.5 °C -15.6 °C 34503.3 hPa West 5.1 km/h 9 km/h 87 % 0 mm
08:04 -14.4 °C -15.6 °C 34503.3 hPa West 3.7 km/h 11.9 km/h 87 % 0 mm
08:09 -14.4 °C -15.5 °C 34506.7 hPa West 5 km/h 11.9 km/h 87 % 0 mm
08:14 -14.3 °C -15.4 °C 34510.1 hPa West 5.1 km/h 20.8 km/h 87 % 0 mm
08:19 -14.3 °C -15.5 °C 34510.1 hPa NW 7.7 km/h 15.6 km/h 86 % 0 mm
08:24 -14.3 °C -15.5 °C 34513.5 hPa WNW 4.2 km/h 9 km/h 86 % 0 mm
08:29 -14.2 °C -15.4 °C 34513.5 hPa West 7.6 km/h 15.6 km/h 86 % 0 mm
08:34 -14.1 °C -15.4 °C 34516.9 hPa WSW 3.1 km/h 9 km/h 85 % 0 mm
08:39 -13.9 °C -15.3 °C 34520.3 hPa WNW 5.5 km/h 17.9 km/h 84 % 0 mm
08:44 -13.9 °C -15.3 °C 34520.3 hPa North 6.4 km/h 15 km/h 84 % 0 mm
08:49 -13.9 °C -15.3 °C 34520.3 hPa NW 4.2 km/h 12.9 km/h 84 % 0 mm
08:54 -13.9 °C -15.4 °C 34523.7 hPa West 8.9 km/h 26.9 km/h 83 % 0 mm
08:59 -13.8 °C -15.2 °C 34520.3 hPa WNW 2.3 km/h 9 km/h 84 % 0 mm
09:04 -13.8 °C -15.2 °C 34523.7 hPa WNW 4.2 km/h 11.9 km/h 84 % 0 mm
09:09 -13.8 °C -15.4 °C 34523.7 hPa WNW 6.4 km/h 20.9 km/h 82 % 0 mm
09:14 -13.7 °C -15.3 °C 34523.7 hPa West 6.9 km/h 11.9 km/h 82 % 0 mm
09:19 -13.7 °C -15.3 °C 34527 hPa WNW 6.9 km/h 11.9 km/h 82 % 0 mm
09:24 -13.7 °C -15.4 °C 34530.4 hPa WNW 9.8 km/h 26.9 km/h 81 % 0 mm
09:29 -13.7 °C -15.4 °C 34533.8 hPa WNW 4.3 km/h 9 km/h 81 % 0 mm
09:34 -13.7 °C -15.4 °C 34533.8 hPa WNW 6 km/h 23.8 km/h 81 % 0 mm
09:39 -13.7 °C -15.4 °C 34533.8 hPa WNW 10.1 km/h 20.8 km/h 81 % 0 mm
09:44 -13.7 °C -15.4 °C 34537.2 hPa North 8 km/h 12.9 km/h 81 % 0 mm
09:49 -13.6 °C -15.3 °C 34537.2 hPa WNW 6 km/h 15 km/h 81 % 0 mm
09:54 -13.6 °C -15.3 °C 34537.2 hPa NNW 6.9 km/h 15 km/h 80 % 0 mm
09:59 -13.5 °C -15.3 °C 34537.2 hPa West 10.3 km/h 23.8 km/h 80 % 0 mm
10:04 -13.4 °C -15.3 °C 34537.2 hPa WSW 6.4 km/h 11.9 km/h 79 % 0 mm
10:09 -13.3 °C -15.1 °C 34540.6 hPa WNW 5.6 km/h 11.9 km/h 80 % 0 mm
10:14 -13.2 °C -15.1 °C 34544 hPa WNW 9.7 km/h 17.9 km/h 79 % 0 mm
10:19 -13.2 °C -15.2 °C 34547.4 hPa West 6 km/h 18.2 km/h 78 % 0 mm
10:24 -13.1 °C -15.3 °C 34544 hPa West 8.5 km/h 15 km/h 76 % 0 mm
10:29 -13.1 °C -15.2 °C 34547.4 hPa NW 3.9 km/h 9 km/h 77 % 0 mm
10:34 -12.9 °C -15.1 °C 34550.7 hPa NW 8.2 km/h 23.3 km/h 77 % 0 mm
10:39 -13 °C -15.2 °C 34550.7 hPa NW 6 km/h 15 km/h 76 % 0 mm
10:45 -12.9 °C -15.2 °C 34547.4 hPa WNW 6.9 km/h 20.9 km/h 76 % 0 mm
10:49 -12.9 °C -15.1 °C 34547.4 hPa NW 8.9 km/h 18.2 km/h 76 % 0 mm
10:54 -12.8 °C -15.1 °C 34550.7 hPa WNW 9.8 km/h 15.6 km/h 76 % 0 mm
10:59 -12.7 °C -15.2 °C 34547.4 hPa WNW 10.3 km/h 17.9 km/h 74 % 0 mm
11:04 -12.7 °C -15.1 °C 34550.7 hPa WSW 6.9 km/h 17.9 km/h 75 % 0 mm
11:10 -12.7 °C -15.3 °C 34554.1 hPa WNW 8.5 km/h 23.8 km/h 73 % 0 mm
11:14 -12.7 °C -15.2 °C 34554.1 hPa West 5.5 km/h 15.6 km/h 74 % 0 mm
11:19 -12.7 °C -15.2 °C 34554.1 hPa West 4.7 km/h 17.9 km/h 74 % 0 mm
11:24 -12.7 °C -15.1 °C 34557.5 hPa WSW 3.9 km/h 9 km/h 74 % 0 mm
11:29 -12.6 °C -14.9 °C 34560.9 hPa WSW 4.2 km/h 9 km/h 74 % 0 mm
11:34 -12.6 °C -15.1 °C 34557.5 hPa West 6 km/h 15 km/h 73 % 0 mm
11:39 -12.4 °C -15.1 °C 34560.9 hPa West 5.6 km/h 9 km/h 73 % 0 mm
11:44 -12.4 °C -15.4 °C 34564.3 hPa WNW 9 km/h 15 km/h 70 % 0 mm
11:49 -12.6 °C -15.3 °C 34564.3 hPa West 6.8 km/h 15 km/h 71 % 0 mm
11:54 -12.6 °C -15.4 °C 34564.3 hPa WNW 5.5 km/h 17.9 km/h 71 % 0 mm
11:59 -12.6 °C -15.3 °C 34557.5 hPa WSW 2.6 km/h 6 km/h 71 % 0 mm
12:04 -12.5 °C -15.4 °C 34557.5 hPa West 6.8 km/h 11.9 km/h 70 % 0 mm
12:09 -12.4 °C -15.4 °C 34560.9 hPa WSW 6.3 km/h 11.9 km/h 69 % 0 mm
12:14 -12.4 °C -15.2 °C 34560.9 hPa WNW 3.1 km/h 9 km/h 71 % 0 mm
12:19 -12.3 °C -15.2 °C 34560.9 hPa West 5.5 km/h 9 km/h 70 % 0 mm
12:24 -12.3 °C -15.4 °C 34557.5 hPa NW 6 km/h 11.9 km/h 69 % 0 mm
12:29 -12.4 °C -15.4 °C 34557.5 hPa NW 5.6 km/h 9 km/h 69 % 0 mm
12:35 -12.4 °C -15.4 °C 34557.5 hPa WNW 2.1 km/h 9 km/h 69 % 0 mm
12:39 -12.5 °C -15.4 °C 34560.9 hPa West 6.3 km/h 17.9 km/h 70 % 0 mm
12:44 -12.6 °C -15.4 °C 34560.9 hPa West 6 km/h 20.9 km/h 71 % 0 mm
12:49 -12.7 °C -15.7 °C 34557.5 hPa West 9.3 km/h 17.9 km/h 69 % 0 mm
12:54 -12.5 °C -15.6 °C 34557.5 hPa West 8.9 km/h 17.9 km/h 68 % 0 mm
12:59 -12.3 °C -15.4 °C 34557.5 hPa WNW 8.9 km/h 23.8 km/h 69 % 0 mm
13:04 -12.3 °C -15.4 °C 34557.5 hPa WSW 9.7 km/h 15 km/h 68 % 0 mm
13:09 -12.2 °C -15.6 °C 34557.5 hPa West 7.6 km/h 11.9 km/h 66 % 0 mm
13:15 -12.2 °C -15.5 °C 34554.1 hPa NNE 6.9 km/h 9 km/h 66 % 0 mm
13:19 -12.1 °C -15.6 °C 34554.1 hPa West 6 km/h 17.9 km/h 65 % 0 mm
13:24 -12.1 °C -15.3 °C 34557.5 hPa WNW 6.8 km/h 9 km/h 67 % 0 mm
13:29 -12.2 °C -15.3 °C 34554.1 hPa West 6.8 km/h 15 km/h 68 % 0 mm
13:34 -12.1 °C -15.1 °C 34554.1 hPa WNW 4.3 km/h 9 km/h 69 % 0 mm
13:39 -12.1 °C -15.3 °C 34557.5 hPa West 4.2 km/h 9 km/h 67 % 0 mm
13:44 -12 °C -15.1 °C 34554.1 hPa North 5.1 km/h 12.9 km/h 68 % 0 mm
13:49 -11.9 °C -15.2 °C 34554.1 hPa West 7.6 km/h 9 km/h 67 % 0 mm
13:54 -11.9 °C -15.2 °C 34554.1 hPa West 3.4 km/h 12.9 km/h 67 % 0 mm
13:59 -11.8 °C -15.2 °C 34557.5 hPa NW 6.4 km/h 10.3 km/h 66 % 0 mm
14:04 -11.8 °C -15.5 °C 34554.1 hPa WNW 6.3 km/h 12.9 km/h 64 % 0 mm
14:09 -11.8 °C -15.4 °C 34554.1 hPa NNE 5.6 km/h 9 km/h 64 % 0 mm
14:14 -11.8 °C -15.6 °C 34554.1 hPa West 6.4 km/h 11.9 km/h 63 % 0 mm
14:19 -11.7 °C -15.6 °C 34557.5 hPa NW 6 km/h 12.9 km/h 62 % 0 mm
14:24 -11.8 °C -15.7 °C 34557.5 hPa WNW 5.5 km/h 12.9 km/h 62 % 0 mm
14:29 -11.7 °C -15.5 °C 34554.1 hPa West 4.3 km/h 15 km/h 63 % 0 mm
14:34 -11.7 °C -15.6 °C 34550.7 hPa NW 9.3 km/h 17.9 km/h 62 % 0 mm
14:39 -11.7 °C -15.4 °C 34554.1 hPa West 10.3 km/h 17.9 km/h 63 % 0 mm
14:44 -11.6 °C -15.3 °C 34557.5 hPa West 4.3 km/h 15 km/h 64 % 0 mm
14:49 -11.6 °C -15.1 °C 34560.9 hPa NNW 2.9 km/h 9 km/h 65 % 0 mm
14:54 -11.6 °C -15.2 °C 34560.9 hPa NW 4.3 km/h 9 km/h 64 % 0 mm
14:59 -11.7 °C -15.5 °C 34560.9 hPa West 6.8 km/h 11.9 km/h 63 % 0 mm
15:04 -11.9 °C -15.6 °C 34564.3 hPa WNW 3.1 km/h 11.9 km/h 64 % 0 mm
15:09 -12 °C -15.7 °C 34564.3 hPa WNW 8.2 km/h 17.9 km/h 63 % 0 mm
15:14 -12.1 °C -15.8 °C 34564.3 hPa WNW 9.3 km/h 17.9 km/h 63 % 0 mm
15:19 -12.2 °C -15.8 °C 34564.3 hPa NNE 8 km/h 18.2 km/h 64 % 0 mm
15:24 -12.2 °C -15.6 °C 34560.9 hPa West 4.3 km/h 11.9 km/h 66 % 0 mm
15:29 -12.2 °C -15.4 °C 34564.3 hPa WSW 1.3 km/h 9 km/h 68 % 0 mm
15:34 -12.3 °C -15.3 °C 34564.3 hPa WNW 2.3 km/h 7.7 km/h 69 % 0 mm
15:39 -12.3 °C -15.7 °C 34564.3 hPa WNW 4.2 km/h 9 km/h 66 % 0 mm
15:44 -12.3 °C -15.6 °C 34560.9 hPa NNW 3.1 km/h 9 km/h 66 % 0 mm
15:49 -12.2 °C -15.9 °C 34560.9 hPa West 4.7 km/h 9 km/h 63 % 0 mm
15:55 -12.1 °C -15.9 °C 34564.3 hPa West 2.9 km/h 9 km/h 63 % 0 mm
15:59 -12.1 °C -15.9 °C 34564.3 hPa West 5.1 km/h 9 km/h 62 % 0 mm
16:04 -12 °C -16.1 °C 34567.7 hPa West 5.1 km/h 10.3 km/h 60 % 0 mm
16:09 -12.1 °C -16.6 °C 34567.7 hPa WNW 6.3 km/h 10.3 km/h 57 % 0 mm
16:14 -12.1 °C -16.7 °C 34571.1 hPa West 2.9 km/h 9 km/h 56 % 0 mm
16:19 -12.2 °C -16.7 °C 34574.4 hPa West 5 km/h 9 km/h 57 % 0 mm
16:24 -12.3 °C -16.5 °C 34574.4 hPa WNW 3.9 km/h 9 km/h 59 % 0 mm
16:29 -12.3 °C -16.2 °C 34581.2 hPa WNW 8.5 km/h 11.9 km/h 62 % 0 mm
16:34 -12.4 °C -15.8 °C 34584.6 hPa West 6.3 km/h 17.9 km/h 66 % 0 mm
Eddington, Herne Bay, UK
Compliments of Weather Underground - 4 mb

Script developed by  Jim McMurry - jmcmurry@mwt.net Adapted for the template by  Wim van der Kuil - Leuven-Template.eu

You find our weather info also at:

UK Metoffice

WeatherCloud

Weather Underground

Equipment we use:

Weather-station
Davis Vantage Vue

Weather-program
Weather Display

Weather-server
Lenovo laptop

Provider
Falcoda Internet

Davis Vantage Vue

Weather Display

Lenovo laptop

Falcoda Internet